Time;durP1;ratioP1;P1;durP2;ratioP2;P2;SDS_P1;SDS_P2;PMS_P1;PMS_P2;Temp;Humidity;BMP_temperature;BMP_pressure;BME280_temperature;BME280_humidity;BME280_pressure;Samples;Min_cycle;Max_cycle;Signal;HPM_P1;HPM_P2
2022/10/04 00:03:44;;;;;;;0.60;0.45;;;;;;;;;;10360180;28;20219;-68
2022/10/04 00:08:48;;;;;;;1.45;0.50;;;;;;;;;;10372219;28;20269;-68
2022/10/04 00:13:51;;;;;;;0.95;0.50;;;;;;;;;;10360172;28;20281;-68
2022/10/04 00:19:11;;;;;;;3.75;0.50;;;;;;;;;;10374141;28;20204;-66
2022/10/04 00:24:20;;;;;;;0.75;0.52;;;;;;;;;;10348839;28;20227;-66
2022/10/04 00:29:30;;;;;;;0.30;0.30;;;;;;;;;;10371482;28;20267;-66
2022/10/04 00:34:31;;;;;;;1.67;0.47;;;;;;;;;;10355261;28;20854;-66
2022/10/04 00:39:32;;;;;;;1.90;0.75;;;;;;;;;;10367965;28;20216;-66
2022/10/04 00:44:46;;;;;;;1.95;0.40;;;;;;;;;;10370767;28;20258;-66
2022/10/04 00:49:49;;;;;;;0.50;0.50;;;;;;;;;;10368556;28;20352;-66
2022/10/04 00:54:52;;;;;;;5.78;0.60;;;;;;;;;;10376267;28;20223;-66
2022/10/04 00:59:56;;;;;;;1.60;0.47;;;;;;;;;;10372096;28;20212;-66
2022/10/04 01:04:59;;;;;;;0.88;0.50;;;;;;;;;;10370778;28;20212;-66
2022/10/04 01:10:02;;;;;;;0.82;0.50;;;;;;;;;;10373297;28;20314;-66
2022/10/04 01:15:13;;;;;;;0.50;0.50;;;;;;;;;;10373439;28;20220;-66
2022/10/04 01:20:28;;;;;;;3.13;0.60;;;;;;;;;;10374749;28;20223;-66
2022/10/04 01:25:42;;;;;;;2.03;0.60;;;;;;;;;;10366707;28;20281;-66
2022/10/04 01:30:44;;;;;;;0.30;0.30;;;;;;;;;;10370901;28;20216;-66
2022/10/04 01:35:45;;;;;;;0.20;0.20;;;;;;;;;;10373182;28;20223;-66
2022/10/04 01:40:49;;;;;;;1.63;0.50;;;;;;;;;;10370116;28;20229;-66
2022/10/04 01:45:53;;;;;;;0.85;0.40;;;;;;;;;;10369490;28;20246;-66
2022/10/04 01:51:03;;;;;;;0.60;0.60;;;;;;;;;;10370501;28;20231;-68
2022/10/04 01:56:04;;;;;;;1.55;0.80;;;;;;;;;;10364962;28;20232;-66
2022/10/04 02:01:09;;;;;;;2.85;0.65;;;;;;;;;;10367503;28;20607;-67
2022/10/04 02:06:11;;;;;;;0.57;0.57;;;;;;;;;;10368042;28;20265;-66
2022/10/04 02:11:16;;;;;;;0.73;0.47;;;;;;;;;;10365684;28;20234;-66
2022/10/04 02:16:17;;;;;;;0.40;0.40;;;;;;;;;;10369181;28;20807;-66
2022/10/04 02:21:19;;;;;;;0.40;0.40;;;;;;;;;;10366823;28;20575;-66
2022/10/04 02:26:20;;;;;;;0.90;0.52;;;;;;;;;;10365370;28;21436;-66
2022/10/04 02:36:42;;;;;;;0.77;0.77;;;;;;;;;;10375606;28;20223;-66
2022/10/04 02:41:46;;;;;;;4.00;0.47;;;;;;;;;;10376483;28;21013;-67
2022/10/04 02:47:05;;;;;;;1.55;0.50;;;;;;;;;;10371488;28;20603;-67
2022/10/04 02:52:17;;;;;;;0.60;0.60;;;;;;;;;;10375127;28;20231;-66
2022/10/04 02:57:20;;;;;;;0.40;0.40;;;;;;;;;;10376619;28;20656;-66
2022/10/04 03:02:21;;;;;;;0.45;0.40;;;;;;;;;;10374908;28;20629;-66
2022/10/04 03:07:23;;;;;;;1.00;0.52;;;;;;;;;;10377302;28;20220;-67
2022/10/04 03:12:24;;;;;;;0.43;0.43;;;;;;;;;;10374932;28;20238;-66
2022/10/04 03:17:25;;;;;;;2.70;0.68;;;;;;;;;;10381306;28;20224;-67
2022/10/04 03:22:26;;;;;;;2.38;0.50;;;;;;;;;;10377446;28;20695;-66
2022/10/04 03:27:30;;;;;;;1.88;0.85;;;;;;;;;;10375744;28;20767;-67
2022/10/04 03:32:31;;;;;;;0.57;0.57;;;;;;;;;;10369762;28;20251;-67
2022/10/04 03:37:37;;;;;;;0.50;0.50;;;;;;;;;;10376097;28;20932;-67
2022/10/04 03:42:38;;;;;;;0.57;0.47;;;;;;;;;;10375337;28;20230;-66
2022/10/04 03:47:42;;;;;;;4.07;0.77;;;;;;;;;;10376834;28;20216;-66
2022/10/04 03:52:47;;;;;;;0.40;0.40;;;;;;;;;;10412762;28;20317;-67
2022/10/04 03:57:48;;;;;;;1.65;0.70;;;;;;;;;;10414654;28;20224;-67
2022/10/04 04:02:57;;;;;;;3.03;1.00;;;;;;;;;;10418418;28;20215;-66
2022/10/04 04:08:06;;;;;;;0.50;0.50;;;;;;;;;;10412678;28;20217;-67
2022/10/04 04:13:22;;;;;;;0.75;0.50;;;;;;;;;;10408876;28;21179;-67
2022/10/04 04:18:24;;;;;;;1.55;0.70;;;;;;;;;;10421589;28;20362;-67
2022/10/04 04:23:27;;;;;;;2.50;1.00;;;;;;;;;;10415789;28;20224;-67
2022/10/04 04:28:28;;;;;;;2.67;1.02;;;;;;;;;;10374481;28;20347;-67
2022/10/04 04:33:33;;;;;;;0.52;0.52;;;;;;;;;;10414228;28;20690;-67
2022/10/04 04:38:34;;;;;;;3.22;0.68;;;;;;;;;;10413917;28;20223;-67
2022/10/04 04:43:35;;;;;;;1.85;0.88;;;;;;;;;;10419588;28;20594;-67
2022/10/04 04:48:36;;;;;;;2.42;1.00;;;;;;;;;;10404839;28;21024;-67
2022/10/04 04:53:42;;;;;;;4.95;0.73;;;;;;;;;;10374600;28;20231;-67
2022/10/04 04:59:04;;;;;;;1.00;0.65;;;;;;;;;;10377197;28;20243;-67
2022/10/04 05:04:06;;;;;;;5.25;1.05;;;;;;;;;;10376195;28;20383;-67
2022/10/04 05:09:21;;;;;;;0.95;0.95;;;;;;;;;;10379774;28;20265;-68
2022/10/04 05:14:23;;;;;;;0.60;0.60;;;;;;;;;;10372382;28;20234;-68
2022/10/04 05:19:24;;;;;;;4.00;0.80;;;;;;;;;;10372937;28;20594;-68
2022/10/04 05:24:25;;;;;;;1.42;0.80;;;;;;;;;;10372757;28;20212;-67
2022/10/04 05:29:27;;;;;;;2.28;0.77;;;;;;;;;;10374607;28;21156;-68
2022/10/04 05:34:33;;;;;;;0.57;0.57;;;;;;;;;;10373945;28;20338;-67
2022/10/04 05:39:37;;;;;;;2.38;0.60;;;;;;;;;;10373940;28;20283;-67
2022/10/04 05:44:46;;;;;;;5.45;0.77;;;;;;;;;;10375363;28;20223;-67
2022/10/04 05:49:47;;;;;;;1.85;0.50;;;;;;;;;;10370127;28;20263;-68
2022/10/04 05:55:07;;;;;;;2.05;0.90;;;;;;;;;;10368209;28;20317;-66
2022/10/04 06:00:08;;;;;;;1.25;0.80;;;;;;;;;;10373889;28;20218;-67
2022/10/04 06:05:24;;;;;;;1.15;1.02;;;;;;;;;;10372263;28;20280;-67
2022/10/04 06:10:34;;;;;;;1.30;1.00;;;;;;;;;;10376908;28;20228;-67
2022/10/04 06:15:56;;;;;;;3.45;0.90;;;;;;;;;;10370049;28;20298;-67
2022/10/04 06:21:02;;;;;;;0.50;0.50;;;;;;;;;;10368868;28;20784;-66
2022/10/04 06:26:07;;;;;;;0.95;0.60;;;;;;;;;;10371482;28;20227;-67
2022/10/04 06:31:23;;;;;;;4.45;0.75;;;;;;;;;;10378129;28;20609;-67
2022/10/04 06:36:24;;;;;;;0.90;0.90;;;;;;;;;;10369657;28;23949;-67
2022/10/04 06:41:25;;;;;;;2.35;0.80;;;;;;;;;;10365736;28;20234;-67
2022/10/04 06:46:31;;;;;;;2.45;0.82;;;;;;;;;;10370359;28;20230;-67
2022/10/04 06:51:40;;;;;;;3.13;0.70;;;;;;;;;;10370192;28;20232;-67
2022/10/04 06:56:52;;;;;;;0.65;0.60;;;;;;;;;;10372081;28;20339;-67
2022/10/04 07:01:56;;;;;;;0.93;0.50;;;;;;;;;;10367444;28;20216;-67
2022/10/04 07:13:04;;;;;;;2.65;0.60;;;;;;;;;;10285374;28;20229;-67
2022/10/04 07:18:08;;;;;;;0.98;0.40;;;;;;;;;;10274166;28;20217;-68
2022/10/04 07:23:13;;;;;;;5.72;0.60;;;;;;;;;;10296875;28;20867;-68
2022/10/04 07:33:43;;;;;;;1.10;0.57;;;;;;;;;;10299795;28;20244;-69
2022/10/04 07:38:46;;;;;;;1.30;0.43;;;;;;;;;;10285110;28;20223;-68
2022/10/04 07:43:50;;;;;;;1.55;0.73;;;;;;;;;;10359085;28;20250;-68
2022/10/04 07:48:52;;;;;;;2.20;0.73;;;;;;;;;;10377242;28;20400;-67
2022/10/04 07:53:53;;;;;;;3.30;0.73;;;;;;;;;;10373850;28;20323;-66
2022/10/04 07:59:10;;;;;;;0.85;0.60;;;;;;;;;;10371446;28;20242;-67
2022/10/04 08:04:27;;;;;;;3.83;0.98;;;;;;;;;;10371750;28;20220;-67
2022/10/04 08:09:33;;;;;;;1.17;0.50;;;;;;;;;;10371672;28;21120;-67
2022/10/04 08:14:35;;;;;;;2.70;0.70;;;;;;;;;;10370772;28;20262;-67
2022/10/04 08:19:55;;;;;;;4.30;1.65;;;;;;;;;;10362516;28;20203;-67
2022/10/04 08:25:15;;;;;;;4.75;1.70;;;;;;;;;;10380936;28;20253;-66
2022/10/04 08:30:16;;;;;;;9.13;1.35;;;;;;;;;;10378408;28;20245;-67
2022/10/04 08:35:36;;;;;;;1.70;0.70;;;;;;;;;;10382065;28;20635;-67
2022/10/04 08:40:43;;;;;;;2.30;0.60;;;;;;;;;;10374796;28;20220;-67
2022/10/04 08:46:03;;;;;;;2.15;0.70;;;;;;;;;;10374467;28;20212;-67
2022/10/04 08:51:18;;;;;;;2.17;0.68;;;;;;;;;;10374295;28;20242;-68
2022/10/04 08:56:38;;;;;;;2.63;0.50;;;;;;;;;;10369141;28;20227;-66
2022/10/04 09:01:39;;;;;;;0.98;0.98;;;;;;;;;;10371095;28;20241;-68
2022/10/04 09:06:54;;;;;;;0.98;0.90;;;;;;;;;;10370503;28;20216;-68
2022/10/04 09:12:15;;;;;;;0.50;0.50;;;;;;;;;;10366443;28;20570;-67
2022/10/04 09:17:19;;;;;;;1.00;0.60;;;;;;;;;;10376978;28;20219;-66
2022/10/04 09:22:39;;;;;;;5.68;0.65;;;;;;;;;;10365421;28;20284;-67
2022/10/04 09:27:46;;;;;;;2.88;0.82;;;;;;;;;;10368355;28;20251;-67
2022/10/04 09:33:06;;;;;;;2.72;1.05;;;;;;;;;;10371192;28;20346;-67
2022/10/04 09:38:07;;;;;;;4.30;0.90;;;;;;;;;;10368704;28;20219;-67
2022/10/04 09:43:27;;;;;;;1.15;0.60;;;;;;;;;;10376384;28;20258;-67
2022/10/04 09:48:43;;;;;;;0.55;0.50;;;;;;;;;;10374727;28;20230;-67
2022/10/04 09:53:51;;;;;;;0.80;0.70;;;;;;;;;;10370386;28;20222;-67
2022/10/04 09:59:02;;;;;;;4.20;0.70;;;;;;;;;;10373523;28;20213;-67
2022/10/04 10:04:09;;;;;;;2.20;0.50;;;;;;;;;;10372167;28;20341;-67
2022/10/04 10:09:10;;;;;;;0.70;0.50;;;;;;;;;;10370457;28;20234;-67
2022/10/04 10:14:14;;;;;;;3.13;0.50;;;;;;;;;;10364737;28;20345;-67
2022/10/04 10:19:21;;;;;;;0.95;0.82;;;;;;;;;;10368357;28;20298;-66
2022/10/04 10:24:22;;;;;;;3.25;0.40;;;;;;;;;;10363904;28;20216;-67
2022/10/04 10:29:35;;;;;;;2.88;0.47;;;;;;;;;;10367085;28;20229;-66
2022/10/04 10:34:55;;;;;;;2.13;0.50;;;;;;;;;;10364071;28;20308;-67
2022/10/04 10:40:06;;;;;;;1.67;0.35;;;;;;;;;;10352213;28;20230;-67
2022/10/04 10:45:13;;;;;;;1.20;0.63;;;;;;;;;;10368489;28;20298;-67
2022/10/04 10:50:57;;;;;;;1.77;0.30;;;;;;;;;;10367076;28;20236;-67
2022/10/04 10:56:07;;;;;;;2.13;0.63;;;;;;;;;;10383210;28;20718;-67
2022/10/04 11:01:09;;;;;;;1.27;0.50;;;;;;;;;;10377896;28;20223;-66
2022/10/04 11:06:15;;;;;;;1.42;0.30;;;;;;;;;;10370504;28;21022;-67
2022/10/04 11:11:37;;;;;;;4.22;0.38;;;;;;;;;;10364777;28;20230;-67
2022/10/04 11:16:57;;;;;;;1.52;0.40;;;;;;;;;;10366919;28;20231;-67
2022/10/04 11:22:17;;;;;;;4.65;0.38;;;;;;;;;;10375621;28;20223;-67
2022/10/04 11:27:18;;;;;;;1.02;0.40;;;;;;;;;;10377745;28;20247;-67
2022/10/04 11:32:40;;;;;;;0.52;0.28;;;;;;;;;;10370392;28;20242;-67
2022/10/04 11:37:42;;;;;;;0.98;0.20;;;;;;;;;;10378123;28;20220;-67
2022/10/04 11:42:59;;;;;;;0.17;0.17;;;;;;;;;;10376942;28;20220;-67
2022/10/04 11:48:30;;;;;;;1.00;0.40;;;;;;;;;;10368896;28;20895;-68
2022/10/04 11:53:51;;;;;;;0.35;0.32;;;;;;;;;;10415099;28;20223;-68
2022/10/04 11:58:59;;;;;;;4.28;0.30;;;;;;;;;;10394527;28;20207;-68
2022/10/04 12:04:30;;;;;;;0.57;0.22;;;;;;;;;;10416367;28;20214;-67
2022/10/04 12:09:39;;;;;;;0.88;0.40;;;;;;;;;;10404051;28;20234;-67
2022/10/04 12:14:56;;;;;;;1.35;0.47;;;;;;;;;;10410871;28;20328;-67
2022/10/04 12:20:15;;;;;;;1.27;0.30;;;;;;;;;;10405325;28;20226;-69
2022/10/04 12:25:36;;;;;;;1.70;0.30;;;;;;;;;;10392322;28;20222;-68
2022/10/04 12:30:37;;;;;;;0.38;0.30;;;;;;;;;;10408943;28;20695;-67
2022/10/04 12:36:02;;;;;;;1.60;0.30;;;;;;;;;;10390632;28;20293;-68
2022/10/04 12:41:03;;;;;;;2.47;0.20;;;;;;;;;;10411878;28;20211;-69
2022/10/04 12:46:07;;;;;;;1.45;0.20;;;;;;;;;;10409912;28;20313;-69
2022/10/04 12:51:14;;;;;;;0.70;0.20;;;;;;;;;;10383341;28;20231;-67
2022/10/04 12:56:38;;;;;;;1.08;0.20;;;;;;;;;;10365154;28;20220;-67
2022/10/04 13:01:46;;;;;;;0.45;0.20;;;;;;;;;;10341306;28;20229;-68
2022/10/04 13:06:47;;;;;;;4.50;0.20;;;;;;;;;;10369483;28;20220;-65
2022/10/04 13:12:12;;;;;;;2.03;0.15;;;;;;;;;;10367010;28;20220;-66
2022/10/04 13:17:23;;;;;;;0.50;0.25;;;;;;;;;;10357421;28;20698;-67
2022/10/04 13:22:43;;;;;;;1.48;0.40;;;;;;;;;;10365774;28;20219;-68
2022/10/04 13:27:44;;;;;;;1.27;0.20;;;;;;;;;;10374560;28;20224;-68
2022/10/04 13:32:48;;;;;;;2.72;0.40;;;;;;;;;;10373317;28;20242;-68
2022/10/04 13:38:08;;;;;;;0.95;0.30;;;;;;;;;;10370896;28;20839;-67
2022/10/04 13:43:21;;;;;;;3.03;0.20;;;;;;;;;;10370911;28;20231;-68
2022/10/04 13:48:26;;;;;;;0.32;0.32;;;;;;;;;;10374487;28;20257;-68
2022/10/04 13:58:53;;;;;;;0.30;0.30;;;;;;;;;;10410020;28;20222;-67
2022/10/04 14:03:57;;;;;;;0.52;0.30;;;;;;;;;;10409830;28;20265;-68
2022/10/04 14:09:01;;;;;;;0.40;0.20;;;;;;;;;;10408925;28;20226;-68
2022/10/04 14:14:13;;;;;;;2.20;0.20;;;;;;;;;;10408928;28;20314;-67
2022/10/04 14:19:27;;;;;;;2.15;0.28;;;;;;;;;;10413577;28;20214;-67
2022/10/04 14:24:43;;;;;;;1.60;0.30;;;;;;;;;;10395449;28;20334;-66
2022/10/04 14:29:51;;;;;;;0.90;0.32;;;;;;;;;;10410547;28;20214;-66
2022/10/04 14:35:01;;;;;;;0.30;0.30;;;;;;;;;;10410584;28;20223;-68
2022/10/04 14:40:14;;;;;;;1.65;0.40;;;;;;;;;;10414801;28;20210;-69
2022/10/04 14:45:23;;;;;;;0.30;0.30;;;;;;;;;;10393470;28;20195;-68
2022/10/04 14:50:27;;;;;;;1.42;0.30;;;;;;;;;;10402836;28;20238;-67
2022/10/04 14:55:47;;;;;;;0.30;0.30;;;;;;;;;;10400145;28;20218;-67
2022/10/04 15:01:07;;;;;;;0.32;0.32;;;;;;;;;;10399879;28;20238;-68
2022/10/04 15:06:10;;;;;;;1.23;0.30;;;;;;;;;;10406816;28;20226;-68
2022/10/04 15:11:17;;;;;;;0.30;0.30;;;;;;;;;;10404002;28;20223;-68
2022/10/04 15:16:43;;;;;;;5.68;0.32;;;;;;;;;;10386120;28;20234;-68
2022/10/04 15:21:58;;;;;;;0.40;0.40;;;;;;;;;;10400001;28;20234;-67
2022/10/04 15:27:19;;;;;;;0.60;0.60;;;;;;;;;;10398372;28;24154;-68
2022/10/04 15:32:34;;;;;;;0.80;0.80;;;;;;;;;;10405199;28;20215;-68
2022/10/04 15:37:45;;;;;;;2.08;1.67;;;;;;;;;;10402125;28;20218;-68
2022/10/04 15:43:03;;;;;;;1.38;0.80;;;;;;;;;;10392426;28;20741;-68
2022/10/04 15:48:23;;;;;;;1.65;0.85;;;;;;;;;;10389611;28;21204;-68
2022/10/04 15:53:43;;;;;;;1.98;0.60;;;;;;;;;;10374545;28;20229;-68
2022/10/04 15:58:49;;;;;;;1.55;0.50;;;;;;;;;;10373901;28;20234;-67
2022/10/04 16:04:10;;;;;;;3.47;1.20;;;;;;;;;;10377745;28;20217;-68
2022/10/04 16:09:28;;;;;;;1.35;1.05;;;;;;;;;;10373725;28;20898;-68
2022/10/04 16:14:52;;;;;;;1.77;1.30;;;;;;;;;;10376192;28;20318;-69
2022/10/04 16:19:58;;;;;;;2.80;2.55;;;;;;;;;;10380452;28;20259;-70
2022/10/04 16:25:19;;;;;;;1.08;0.98;;;;;;;;;;10375364;28;20304;-70
2022/10/04 16:30:26;;;;;;;2.33;0.80;;;;;;;;;;10375192;28;20220;-69
2022/10/04 16:35:33;;;;;;;3.75;0.90;;;;;;;;;;10373218;28;20681;-68
2022/10/04 16:40:46;;;;;;;2.15;0.77;;;;;;;;;;10374310;28;20298;-67
2022/10/04 16:45:49;;;;;;;5.60;5.10;;;;;;;;;;10375137;28;20220;-66
2022/10/04 16:51:03;;;;;;;2.65;1.10;;;;;;;;;;10374551;28;20219;-66
2022/10/04 16:56:15;;;;;;;0.82;0.80;;;;;;;;;;10377598;28;20236;-66
2022/10/04 17:01:22;;;;;;;2.08;0.60;;;;;;;;;;10375269;28;20222;-67
2022/10/04 17:06:31;;;;;;;2.67;0.90;;;;;;;;;;10373789;28;20229;-68
2022/10/04 17:11:36;;;;;;;0.95;0.47;;;;;;;;;;10375471;28;20224;-68
2022/10/04 17:16:38;;;;;;;0.60;0.50;;;;;;;;;;10377933;28;20383;-68
2022/10/04 17:21:46;;;;;;;0.63;0.63;;;;;;;;;;10374077;28;20274;-68
2022/10/04 17:26:51;;;;;;;1.38;1.38;;;;;;;;;;10375769;28;20223;-68
2022/10/04 17:32:03;;;;;;;0.80;0.80;;;;;;;;;;10375412;28;20219;-68
2022/10/04 17:37:23;;;;;;;0.82;0.82;;;;;;;;;;10376251;28;20223;-68
2022/10/04 17:42:39;;;;;;;0.70;0.70;;;;;;;;;;10373647;28;20251;-68
2022/10/04 17:58:38;;;;;;;0.80;0.80;;;;;;;;;;10365416;28;20266;-67
2022/10/04 18:03:42;;;;;;;1.67;0.70;;;;;;;;;;10364578;28;20255;-68
2022/10/04 18:08:46;;;;;;;1.27;1.17;;;;;;;;;;10360216;28;20249;-68
2022/10/04 18:13:51;;;;;;;1.55;1.45;;;;;;;;;;10361808;28;20310;-68
2022/10/04 18:18:52;;;;;;;1.02;1.02;;;;;;;;;;10363589;28;20750;-68
2022/10/04 18:23:58;;;;;;;1.20;1.10;;;;;;;;;;10359223;28;20228;-67
2022/10/04 18:29:00;;;;;;;36.28;13.85;;;;;;;;;;10363947;28;20332;-66
2022/10/04 18:34:15;;;;;;;50.83;20.00;;;;;;;;;;10370542;28;20224;-66
2022/10/04 18:39:18;;;;;;;18.63;8.60;;;;;;;;;;10368238;28;20231;-69
2022/10/04 18:44:20;;;;;;;5.18;3.33;;;;;;;;;;10361562;28;20228;-69
2022/10/04 18:49:26;;;;;;;5.93;3.88;;;;;;;;;;10347074;28;20246;-70
2022/10/04 18:54:39;;;;;;;73.75;26.65;;;;;;;;;;10363534;28;20317;-69
2022/10/04 19:05:16;;;;;;;20.50;11.90;;;;;;;;;;10368071;28;20223;-68
2022/10/04 19:10:31;;;;;;;12.55;6.60;;;;;;;;;;10366495;28;20216;-67
2022/10/04 19:15:38;;;;;;;3.58;2.90;;;;;;;;;;10373561;28;20235;-68
2022/10/04 19:20:42;;;;;;;2.53;2.05;;;;;;;;;;10376483;28;20227;-68
2022/10/04 19:25:48;;;;;;;3.08;2.08;;;;;;;;;;10380105;28;20243;-67
2022/10/04 19:30:58;;;;;;;2.88;2.60;;;;;;;;;;10381921;28;20258;-66
2022/10/04 19:36:12;;;;;;;2.35;2.17;;;;;;;;;;10380981;28;20231;-66
2022/10/04 19:41:32;;;;;;;0.98;0.98;;;;;;;;;;10380760;28;20310;-67
2022/10/04 19:46:41;;;;;;;2.40;1.20;;;;;;;;;;10377539;28;20297;-67
2022/10/04 19:51:49;;;;;;;1.83;1.00;;;;;;;;;;10376167;28;20242;-69
2022/10/04 19:56:55;;;;;;;1.10;1.10;;;;;;;;;;10375330;28;20727;-68
2022/10/04 20:01:56;;;;;;;4.72;1.27;;;;;;;;;;10376246;28;20215;-68
2022/10/04 20:06:58;;;;;;;2.05;1.08;;;;;;;;;;10371798;28;20905;-68
2022/10/04 20:11:59;;;;;;;3.22;1.10;;;;;;;;;;10375550;28;20215;-68
2022/10/04 20:17:00;;;;;;;1.90;1.50;;;;;;;;;;10375378;28;20233;-67
2022/10/04 20:22:08;;;;;;;2.80;1.13;;;;;;;;;;10377426;28;20247;-68
2022/10/04 20:27:25;;;;;;;1.20;1.20;;;;;;;;;;10378083;28;20236;-68
2022/10/04 20:32:28;;;;;;;2.05;0.98;;;;;;;;;;10378867;28;20219;-68
2022/10/04 20:37:44;;;;;;;0.90;0.90;;;;;;;;;;10377118;28;20215;-68
2022/10/04 20:43:08;;;;;;;2.85;0.95;;;;;;;;;;10372497;28;20223;-68
2022/10/04 20:48:16;;;;;;;1.40;1.25;;;;;;;;;;10379938;28;20212;-68
2022/10/04 20:53:28;;;;;;;1.00;0.80;;;;;;;;;;10376523;28;20231;-68
2022/10/04 20:58:34;;;;;;;1.30;1.15;;;;;;;;;;10358940;28;20785;-67
2022/10/04 21:03:35;;;;;;;1.15;0.90;;;;;;;;;;10378752;28;20302;-68
2022/10/04 21:08:37;;;;;;;1.40;1.30;;;;;;;;;;10377076;28;20224;-68
2022/10/04 21:13:41;;;;;;;1.30;1.20;;;;;;;;;;10376682;28;20359;-69
2022/10/04 21:18:42;;;;;;;3.78;1.20;;;;;;;;;;10382322;28;20258;-67
2022/10/04 21:23:43;;;;;;;5.43;1.15;;;;;;;;;;10341791;28;20215;-68
2022/10/04 21:28:44;;;;;;;1.17;1.08;;;;;;;;;;10377746;28;20655;-67
2022/10/04 21:33:45;;;;;;;0.95;0.95;;;;;;;;;;10380203;28;20289;-67
2022/10/04 21:38:46;;;;;;;1.75;1.02;;;;;;;;;;10375269;28;20212;-68
2022/10/04 21:43:47;;;;;;;0.60;0.60;;;;;;;;;;10375813;28;20262;-68
2022/10/04 21:48:49;;;;;;;0.90;0.90;;;;;;;;;;10376291;28;20226;-67
2022/10/04 21:53:50;;;;;;;1.13;1.00;;;;;;;;;;10374441;28;20653;-68
2022/10/04 21:58:51;;;;;;;2.35;1.02;;;;;;;;;;10367395;28;20219;-68
2022/10/04 22:03:52;;;;;;;1.83;1.73;;;;;;;;;;10374921;28;20841;-67
2022/10/04 22:08:53;;;;;;;1.88;1.13;;;;;;;;;;10375969;28;20215;-66
2022/10/04 22:13:54;;;;;;;1.50;0.90;;;;;;;;;;10378614;28;20230;-67
2022/10/04 22:18:56;;;;;;;1.67;0.88;;;;;;;;;;10381613;28;20236;-68
2022/10/04 22:23:57;;;;;;;0.82;0.65;;;;;;;;;;10373507;28;20216;-68
2022/10/04 22:28:58;;;;;;;2.15;1.20;;;;;;;;;;10362191;28;20211;-70
2022/10/04 22:33:59;;;;;;;1.77;0.90;;;;;;;;;;10373010;28;20249;-69
2022/10/04 22:39:03;;;;;;;0.70;0.70;;;;;;;;;;10376744;28;20216;-68
2022/10/04 22:44:11;;;;;;;0.55;0.55;;;;;;;;;;10376329;28;20232;-68
2022/10/04 22:49:14;;;;;;;0.82;0.82;;;;;;;;;;10380917;28;20656;-68
2022/10/04 22:54:17;;;;;;;1.23;0.93;;;;;;;;;;10383788;28;20227;-68
2022/10/04 22:59:19;;;;;;;1.35;1.00;;;;;;;;;;10386575;28;20282;-68
2022/10/04 23:04:22;;;;;;;1.85;0.63;;;;;;;;;;10376959;28;20217;-70
2022/10/04 23:09:23;;;;;;;0.70;0.70;;;;;;;;;;10376852;28;20354;-70
2022/10/04 23:14:24;;;;;;;1.55;1.45;;;;;;;;;;10373167;28;20231;-70
2022/10/04 23:19:25;;;;;;;0.88;0.73;;;;;;;;;;10374515;28;20294;-70
2022/10/04 23:24:26;;;;;;;0.90;0.90;;;;;;;;;;10375396;28;20722;-70
2022/10/04 23:29:30;;;;;;;1.67;0.93;;;;;;;;;;10372929;28;20708;-70
2022/10/04 23:34:38;;;;;;;0.95;0.95;;;;;;;;;;10370306;28;20224;-68
2022/10/04 23:39:39;;;;;;;1.75;0.90;;;;;;;;;;10376613;28;20234;-67
2022/10/04 23:44:40;;;;;;;0.77;0.68;;;;;;;;;;10371257;28;21123;-68
2022/10/04 23:49:42;;;;;;;0.65;0.65;;;;;;;;;;10372897;28;20349;-68
2022/10/04 23:54:43;;;;;;;2.53;1.20;;;;;;;;;;10376453;28;20390;-68
2022/10/04 23:59:44;;;;;;;1.20;0.90;;;;;;;;;;10371495;28;20307;-68
